sensor_id;sensor_type;location;lat;lon;timestamp;P1;durP1;ratioP1;P2;durP2;ratioP2
52470;SDS011;38382;53.160;7.026;2023-04-24T00:00:01;3.08;;;2.20;;
52470;SDS011;38382;53.160;7.026;2023-04-24T00:02:38;2.40;;;1.60;;
52470;SDS011;38382;53.160;7.026;2023-04-24T00:05:07;2.15;;;1.20;;
52470;SDS011;38382;53.160;7.026;2023-04-24T00:07:33;2.95;;;1.20;;
52470;SDS011;38382;53.160;7.026;2023-04-24T00:10:00;1.40;;;1.00;;
52470;SDS011;38382;53.160;7.026;2023-04-24T00:12:25;4.03;;;1.33;;
52470;SDS011;38382;53.160;7.026;2023-04-24T00:14:52;1.77;;;1.00;;
52470;SDS011;38382;53.160;7.026;2023-04-24T00:17:18;2.22;;;1.10;;
52470;SDS011;38382;53.160;7.026;2023-04-24T00:19:46;2.10;;;1.00;;
52470;SDS011;38382;53.160;7.026;2023-04-24T00:22:12;2.03;;;1.05;;
52470;SDS011;38382;53.160;7.026;2023-04-24T00:24:40;2.03;;;1.13;;
52470;SDS011;38382;53.160;7.026;2023-04-24T00:27:06;1.63;;;1.20;;
52470;SDS011;38382;53.160;7.026;2023-04-24T00:29:32;2.05;;;1.27;;
52470;SDS011;38382;53.160;7.026;2023-04-24T00:31:57;1.60;;;1.10;;
52470;SDS011;38382;53.160;7.026;2023-04-24T00:34:23;1.67;;;1.10;;
52470;SDS011;38382;53.160;7.026;2023-04-24T00:36:49;3.60;;;1.25;;
52470;SDS011;38382;53.160;7.026;2023-04-24T00:39:18;1.88;;;1.33;;
52470;SDS011;38382;53.160;7.026;2023-04-24T00:41:44;1.98;;;1.20;;
52470;SDS011;38382;53.160;7.026;2023-04-24T00:44:11;1.73;;;1.30;;
52470;SDS011;38382;53.160;7.026;2023-04-24T00:46:36;2.70;;;1.30;;
52470;SDS011;38382;53.160;7.026;2023-04-24T00:49:04;2.85;;;1.50;;
52470;SDS011;38382;53.160;7.026;2023-04-24T00:51:30;2.92;;;1.60;;
52470;SDS011;38382;53.160;7.026;2023-04-24T00:53:58;2.20;;;1.60;;
52470;SDS011;38382;53.160;7.026;2023-04-24T00:56:24;3.83;;;1.50;;
52470;SDS011;38382;53.160;7.026;2023-04-24T00:58:50;3.78;;;1.83;;
52470;SDS011;38382;53.160;7.026;2023-04-24T01:01:17;3.38;;;1.70;;
52470;SDS011;38382;53.160;7.026;2023-04-24T01:03:45;3.22;;;1.80;;
52470;SDS011;38382;53.160;7.026;2023-04-24T01:06:12;2.58;;;1.98;;
52470;SDS011;38382;53.160;7.026;2023-04-24T01:08:39;3.05;;;1.80;;
52470;SDS011;38382;53.160;7.026;2023-04-24T01:11:06;3.08;;;2.10;;
52470;SDS011;38382;53.160;7.026;2023-04-24T01:13:32;3.05;;;2.13;;
52470;SDS011;38382;53.160;7.026;2023-04-24T01:15:58;2.47;;;1.92;;
52470;SDS011;38382;53.160;7.026;2023-04-24T01:18:25;3.05;;;2.20;;
52470;SDS011;38382;53.160;7.026;2023-04-24T01:20:53;2.83;;;2.10;;
52470;SDS011;38382;53.160;7.026;2023-04-24T01:23:21;3.15;;;2.40;;
52470;SDS011;38382;53.160;7.026;2023-04-24T01:25:48;2.90;;;2.15;;
52470;SDS011;38382;53.160;7.026;2023-04-24T01:28:15;4.57;;;2.58;;
52470;SDS011;38382;53.160;7.026;2023-04-24T01:30:41;3.28;;;2.47;;
52470;SDS011;38382;53.160;7.026;2023-04-24T01:33:07;4.03;;;2.50;;
52470;SDS011;38382;53.160;7.026;2023-04-24T01:35:33;4.68;;;2.70;;
52470;SDS011;38382;53.160;7.026;2023-04-24T01:37:59;3.55;;;2.83;;
52470;SDS011;38382;53.160;7.026;2023-04-24T01:40:25;3.42;;;2.78;;
52470;SDS011;38382;53.160;7.026;2023-04-24T01:42:50;4.15;;;2.95;;
52470;SDS011;38382;53.160;7.026;2023-04-24T01:45:17;3.50;;;2.80;;
52470;SDS011;38382;53.160;7.026;2023-04-24T01:47:43;3.45;;;2.67;;
52470;SDS011;38382;53.160;7.026;2023-04-24T01:50:10;3.75;;;2.67;;
52470;SDS011;38382;53.160;7.026;2023-04-24T01:52:36;3.70;;;2.70;;
52470;SDS011;38382;53.160;7.026;2023-04-24T01:55:02;3.33;;;2.60;;
52470;SDS011;38382;53.160;7.026;2023-04-24T01:57:29;3.33;;;2.40;;
52470;SDS011;38382;53.160;7.026;2023-04-24T01:59:55;3.10;;;2.20;;
52470;SDS011;38382;53.160;7.026;2023-04-24T02:02:21;3.10;;;2.35;;
52470;SDS011;38382;53.160;7.026;2023-04-24T02:04:49;3.17;;;2.22;;
52470;SDS011;38382;53.160;7.026;2023-04-24T02:07:15;3.10;;;2.30;;
52470;SDS011;38382;53.160;7.026;2023-04-24T02:09:41;3.78;;;2.90;;
52470;SDS011;38382;53.160;7.026;2023-04-24T02:12:07;3.50;;;2.38;;
52470;SDS011;38382;53.160;7.026;2023-04-24T02:14:32;4.85;;;3.45;;
52470;SDS011;38382;53.160;7.026;2023-04-24T02:16:58;4.75;;;3.53;;
52470;SDS011;38382;53.160;7.026;2023-04-24T02:19:25;4.57;;;3.50;;
52470;SDS011;38382;53.160;7.026;2023-04-24T02:21:51;4.57;;;3.13;;
52470;SDS011;38382;53.160;7.026;2023-04-24T02:24:18;4.45;;;3.45;;
52470;SDS011;38382;53.160;7.026;2023-04-24T02:26:43;5.65;;;4.13;;
52470;SDS011;38382;53.160;7.026;2023-04-24T02:29:09;5.22;;;4.00;;
52470;SDS011;38382;53.160;7.026;2023-04-24T02:31:35;4.57;;;3.50;;
52470;SDS011;38382;53.160;7.026;2023-04-24T02:34:01;4.57;;;3.60;;
52470;SDS011;38382;53.160;7.026;2023-04-24T02:36:27;5.35;;;3.90;;
52470;SDS011;38382;53.160;7.026;2023-04-24T02:38:52;5.32;;;3.55;;
52470;SDS011;38382;53.160;7.026;2023-04-24T02:41:18;4.40;;;3.15;;
52470;SDS011;38382;53.160;7.026;2023-04-24T02:43:44;6.05;;;4.38;;
52470;SDS011;38382;53.160;7.026;2023-04-24T02:46:10;4.88;;;3.72;;
52470;SDS011;38382;53.160;7.026;2023-04-24T02:48:36;6.35;;;5.18;;
52470;SDS011;38382;53.160;7.026;2023-04-24T02:51:02;4.82;;;4.32;;
52470;SDS011;38382;53.160;7.026;2023-04-24T02:53:28;6.03;;;5.28;;
52470;SDS011;38382;53.160;7.026;2023-04-24T02:55:56;5.32;;;4.82;;
52470;SDS011;38382;53.160;7.026;2023-04-24T02:58:22;5.65;;;4.88;;
52470;SDS011;38382;53.160;7.026;2023-04-24T03:00:47;5.68;;;5.07;;
52470;SDS011;38382;53.160;7.026;2023-04-24T03:03:13;6.10;;;5.50;;
52470;SDS011;38382;53.160;7.026;2023-04-24T03:05:40;6.03;;;5.43;;
52470;SDS011;38382;53.160;7.026;2023-04-24T03:08:06;6.50;;;5.45;;
52470;SDS011;38382;53.160;7.026;2023-04-24T03:10:31;5.95;;;5.35;;
52470;SDS011;38382;53.160;7.026;2023-04-24T03:12:57;6.00;;;5.30;;
52470;SDS011;38382;53.160;7.026;2023-04-24T03:15:23;5.60;;;5.00;;
52470;SDS011;38382;53.160;7.026;2023-04-24T03:17:49;5.40;;;4.88;;
52470;SDS011;38382;53.160;7.026;2023-04-24T03:20:15;6.50;;;5.05;;
52470;SDS011;38382;53.160;7.026;2023-04-24T03:22:41;6.25;;;4.75;;
52470;SDS011;38382;53.160;7.026;2023-04-24T03:25:06;6.05;;;4.85;;
52470;SDS011;38382;53.160;7.026;2023-04-24T03:27:34;6.00;;;5.40;;
52470;SDS011;38382;53.160;7.026;2023-04-24T03:30:00;6.40;;;5.30;;
52470;SDS011;38382;53.160;7.026;2023-04-24T03:32:27;6.10;;;4.88;;
52470;SDS011;38382;53.160;7.026;2023-04-24T03:34:52;5.93;;;4.57;;
52470;SDS011;38382;53.160;7.026;2023-04-24T03:37:18;7.25;;;5.43;;
52470;SDS011;38382;53.160;7.026;2023-04-24T03:39:44;7.15;;;5.82;;
52470;SDS011;38382;53.160;7.026;2023-04-24T03:42:09;5.80;;;5.20;;
52470;SDS011;38382;53.160;7.026;2023-04-24T03:44:35;6.90;;;5.65;;
52470;SDS011;38382;53.160;7.026;2023-04-24T03:47:01;5.68;;;5.00;;
52470;SDS011;38382;53.160;7.026;2023-04-24T03:49:27;6.93;;;5.50;;
52470;SDS011;38382;53.160;7.026;2023-04-24T03:51:53;5.80;;;5.00;;
52470;SDS011;38382;53.160;7.026;2023-04-24T03:54:18;9.05;;;5.85;;
52470;SDS011;38382;53.160;7.026;2023-04-24T03:56:45;7.85;;;5.47;;
52470;SDS011;38382;53.160;7.026;2023-04-24T03:59:10;7.22;;;5.72;;
52470;SDS011;38382;53.160;7.026;2023-04-24T04:01:36;6.65;;;5.32;;
52470;SDS011;38382;53.160;7.026;2023-04-24T04:04:03;7.38;;;5.40;;
52470;SDS011;38382;53.160;7.026;2023-04-24T04:06:29;6.22;;;5.32;;
52470;SDS011;38382;53.160;7.026;2023-04-24T04:08:56;7.10;;;5.93;;
52470;SDS011;38382;53.160;7.026;2023-04-24T04:11:22;7.90;;;5.93;;
52470;SDS011;38382;53.160;7.026;2023-04-24T04:13:48;6.78;;;6.07;;
52470;SDS011;38382;53.160;7.026;2023-04-24T04:16:14;8.00;;;6.60;;
52470;SDS011;38382;53.160;7.026;2023-04-24T04:18:42;7.30;;;6.18;;
52470;SDS011;38382;53.160;7.026;2023-04-24T04:21:08;7.45;;;5.68;;
52470;SDS011;38382;53.160;7.026;2023-04-24T04:23:33;9.40;;;6.38;;
52470;SDS011;38382;53.160;7.026;2023-04-24T04:26:00;7.15;;;5.93;;
52470;SDS011;38382;53.160;7.026;2023-04-24T04:28:26;7.47;;;6.00;;
52470;SDS011;38382;53.160;7.026;2023-04-24T04:30:52;6.38;;;5.65;;
52470;SDS011;38382;53.160;7.026;2023-04-24T04:33:22;7.40;;;6.05;;
52470;SDS011;38382;53.160;7.026;2023-04-24T04:35:47;7.18;;;5.50;;
52470;SDS011;38382;53.160;7.026;2023-04-24T04:38:21;7.65;;;6.20;;
52470;SDS011;38382;53.160;7.026;2023-04-24T04:40:48;9.48;;;6.45;;
52470;SDS011;38382;53.160;7.026;2023-04-24T04:43:13;6.90;;;5.53;;
52470;SDS011;38382;53.160;7.026;2023-04-24T04:45:40;7.15;;;5.40;;
52470;SDS011;38382;53.160;7.026;2023-04-24T04:48:07;7.45;;;5.90;;
52470;SDS011;38382;53.160;7.026;2023-04-24T04:50:34;7.82;;;5.68;;
52470;SDS011;38382;53.160;7.026;2023-04-24T04:53:00;7.38;;;5.65;;
52470;SDS011;38382;53.160;7.026;2023-04-24T04:55:26;6.50;;;5.28;;
52470;SDS011;38382;53.160;7.026;2023-04-24T04:57:52;6.93;;;5.70;;
52470;SDS011;38382;53.160;7.026;2023-04-24T05:00:18;7.43;;;5.50;;
52470;SDS011;38382;53.160;7.026;2023-04-24T05:02:44;6.95;;;5.50;;
52470;SDS011;38382;53.160;7.026;2023-04-24T05:05:10;7.28;;;6.03;;
52470;SDS011;38382;53.160;7.026;2023-04-24T05:07:35;8.40;;;6.25;;
52470;SDS011;38382;53.160;7.026;2023-04-24T05:10:01;7.30;;;5.72;;
52470;SDS011;38382;53.160;7.026;2023-04-24T05:12:28;8.00;;;5.55;;
52470;SDS011;38382;53.160;7.026;2023-04-24T05:14:53;6.28;;;5.05;;
52470;SDS011;38382;53.160;7.026;2023-04-24T05:17:19;7.20;;;5.38;;
52470;SDS011;38382;53.160;7.026;2023-04-24T05:19:45;7.85;;;5.90;;
52470;SDS011;38382;53.160;7.026;2023-04-24T05:22:11;9.85;;;6.43;;
52470;SDS011;38382;53.160;7.026;2023-04-24T05:24:37;8.38;;;6.82;;
52470;SDS011;38382;53.160;7.026;2023-04-24T05:27:03;9.20;;;6.45;;
52470;SDS011;38382;53.160;7.026;2023-04-24T05:29:32;7.50;;;6.20;;
52470;SDS011;38382;53.160;7.026;2023-04-24T05:31:58;10.27;;;6.60;;
52470;SDS011;38382;53.160;7.026;2023-04-24T05:34:25;7.80;;;6.32;;
52470;SDS011;38382;53.160;7.026;2023-04-24T05:36:51;9.70;;;6.53;;
52470;SDS011;38382;53.160;7.026;2023-04-24T05:39:17;7.40;;;5.30;;
52470;SDS011;38382;53.160;7.026;2023-04-24T05:41:43;7.60;;;5.80;;
52470;SDS011;38382;53.160;7.026;2023-04-24T05:44:09;7.20;;;5.28;;
52470;SDS011;38382;53.160;7.026;2023-04-24T05:46:34;7.10;;;5.43;;
52470;SDS011;38382;53.160;7.026;2023-04-24T05:49:00;7.43;;;4.95;;
52470;SDS011;38382;53.160;7.026;2023-04-24T05:51:27;8.00;;;5.20;;
52470;SDS011;38382;53.160;7.026;2023-04-24T05:53:53;6.90;;;5.07;;
52470;SDS011;38382;53.160;7.026;2023-04-24T05:56:19;6.05;;;4.55;;
52470;SDS011;38382;53.160;7.026;2023-04-24T05:58:46;6.97;;;4.53;;
52470;SDS011;38382;53.160;7.026;2023-04-24T06:01:12;5.90;;;4.35;;
52470;SDS011;38382;53.160;7.026;2023-04-24T06:03:39;5.70;;;4.55;;
52470;SDS011;38382;53.160;7.026;2023-04-24T06:06:06;6.40;;;4.25;;
52470;SDS011;38382;53.160;7.026;2023-04-24T06:08:32;5.55;;;3.75;;
52470;SDS011;38382;53.160;7.026;2023-04-24T06:10:58;8.05;;;4.60;;
52470;SDS011;38382;53.160;7.026;2023-04-24T06:13:24;5.75;;;4.18;;
52470;SDS011;38382;53.160;7.026;2023-04-24T06:15:51;6.57;;;4.60;;
52470;SDS011;38382;53.160;7.026;2023-04-24T06:18:17;6.95;;;5.03;;
52470;SDS011;38382;53.160;7.026;2023-04-24T06:20:43;6.57;;;4.65;;
52470;SDS011;38382;53.160;7.026;2023-04-24T06:23:10;6.97;;;5.10;;
52470;SDS011;38382;53.160;7.026;2023-04-24T06:25:35;5.72;;;4.30;;
52470;SDS011;38382;53.160;7.026;2023-04-24T06:28:01;6.32;;;4.65;;
52470;SDS011;38382;53.160;7.026;2023-04-24T06:30:27;6.38;;;4.28;;
52470;SDS011;38382;53.160;7.026;2023-04-24T06:32:53;7.50;;;4.43;;
52470;SDS011;38382;53.160;7.026;2023-04-24T06:35:19;6.40;;;4.60;;
52470;SDS011;38382;53.160;7.026;2023-04-24T06:37:45;5.35;;;3.97;;
52470;SDS011;38382;53.160;7.026;2023-04-24T06:40:11;6.65;;;4.65;;
52470;SDS011;38382;53.160;7.026;2023-04-24T06:42:37;7.57;;;4.50;;
52470;SDS011;38382;53.160;7.026;2023-04-24T06:45:02;5.95;;;4.57;;
52470;SDS011;38382;53.160;7.026;2023-04-24T06:47:29;6.40;;;4.50;;
52470;SDS011;38382;53.160;7.026;2023-04-24T06:49:55;6.60;;;4.68;;
52470;SDS011;38382;53.160;7.026;2023-04-24T06:52:20;6.05;;;4.47;;
52470;SDS011;38382;53.160;7.026;2023-04-24T06:54:46;6.43;;;4.97;;
52470;SDS011;38382;53.160;7.026;2023-04-24T06:57:12;8.45;;;4.80;;
52470;SDS011;38382;53.160;7.026;2023-04-24T06:59:38;6.60;;;5.07;;
52470;SDS011;38382;53.160;7.026;2023-04-24T07:02:03;6.97;;;5.05;;
52470;SDS011;38382;53.160;7.026;2023-04-24T07:04:30;6.28;;;4.18;;
52470;SDS011;38382;53.160;7.026;2023-04-24T07:06:56;5.80;;;4.07;;
52470;SDS011;38382;53.160;7.026;2023-04-24T07:09:26;6.72;;;4.30;;
52470;SDS011;38382;53.160;7.026;2023-04-24T07:11:52;5.93;;;4.40;;
52470;SDS011;38382;53.160;7.026;2023-04-24T07:14:18;5.55;;;3.90;;
52470;SDS011;38382;53.160;7.026;2023-04-24T07:16:45;5.80;;;4.15;;
52470;SDS011;38382;53.160;7.026;2023-04-24T07:19:12;5.75;;;4.20;;
52470;SDS011;38382;53.160;7.026;2023-04-24T07:21:39;5.00;;;3.75;;
52470;SDS011;38382;53.160;7.026;2023-04-24T07:24:05;6.78;;;3.67;;
52470;SDS011;38382;53.160;7.026;2023-04-24T07:26:34;5.20;;;3.67;;
52470;SDS011;38382;53.160;7.026;2023-04-24T07:29:00;5.60;;;3.13;;
52470;SDS011;38382;53.160;7.026;2023-04-24T07:31:25;4.75;;;3.50;;
52470;SDS011;38382;53.160;7.026;2023-04-24T07:33:51;4.68;;;3.40;;
52470;SDS011;38382;53.160;7.026;2023-04-24T07:36:17;5.88;;;3.50;;
52470;SDS011;38382;53.160;7.026;2023-04-24T07:38:47;4.72;;;3.50;;
52470;SDS011;38382;53.160;7.026;2023-04-24T07:41:13;4.20;;;3.17;;
52470;SDS011;38382;53.160;7.026;2023-04-24T07:43:39;5.40;;;3.63;;
52470;SDS011;38382;53.160;7.026;2023-04-24T07:46:06;5.30;;;3.13;;
52470;SDS011;38382;53.160;7.026;2023-04-24T07:48:32;4.28;;;3.00;;
52470;SDS011;38382;53.160;7.026;2023-04-24T07:50:58;4.50;;;3.15;;
52470;SDS011;38382;53.160;7.026;2023-04-24T07:53:24;5.00;;;3.17;;
52470;SDS011;38382;53.160;7.026;2023-04-24T07:55:49;4.40;;;3.10;;
52470;SDS011;38382;53.160;7.026;2023-04-24T07:58:15;3.78;;;2.72;;
52470;SDS011;38382;53.160;7.026;2023-04-24T08:00:41;5.30;;;3.72;;
52470;SDS011;38382;53.160;7.026;2023-04-24T08:03:07;4.72;;;3.60;;
52470;SDS011;38382;53.160;7.026;2023-04-24T08:05:32;6.03;;;3.92;;
52470;SDS011;38382;53.160;7.026;2023-04-24T08:07:58;7.00;;;3.53;;
52470;SDS011;38382;53.160;7.026;2023-04-24T08:10:24;5.13;;;3.80;;
52470;SDS011;38382;53.160;7.026;2023-04-24T08:12:50;6.82;;;4.18;;
52470;SDS011;38382;53.160;7.026;2023-04-24T08:15:16;5.70;;;4.30;;
52470;SDS011;38382;53.160;7.026;2023-04-24T08:17:42;5.57;;;4.03;;
52470;SDS011;38382;53.160;7.026;2023-04-24T08:20:09;9.57;;;4.60;;
52470;SDS011;38382;53.160;7.026;2023-04-24T08:22:42;6.63;;;4.20;;
52470;SDS011;38382;53.160;7.026;2023-04-24T08:25:08;4.85;;;3.70;;
52470;SDS011;38382;53.160;7.026;2023-04-24T08:27:36;6.78;;;3.67;;
52470;SDS011;38382;53.160;7.026;2023-04-24T08:30:02;5.55;;;3.60;;
52470;SDS011;38382;53.160;7.026;2023-04-24T08:32:29;4.82;;;3.10;;
52470;SDS011;38382;53.160;7.026;2023-04-24T08:34:58;4.68;;;2.80;;
52470;SDS011;38382;53.160;7.026;2023-04-24T08:37:25;5.95;;;3.20;;
52470;SDS011;38382;53.160;7.026;2023-04-24T08:39:52;7.72;;;2.83;;
52470;SDS011;38382;53.160;7.026;2023-04-24T08:42:18;3.50;;;2.28;;
52470;SDS011;38382;53.160;7.026;2023-04-24T08:44:45;5.38;;;2.63;;
52470;SDS011;38382;53.160;7.026;2023-04-24T08:47:11;5.78;;;2.58;;
52470;SDS011;38382;53.160;7.026;2023-04-24T08:49:37;6.93;;;3.00;;
52470;SDS011;38382;53.160;7.026;2023-04-24T08:52:07;9.00;;;3.38;;
52470;SDS011;38382;53.160;7.026;2023-04-24T08:54:36;7.70;;;3.67;;
52470;SDS011;38382;53.160;7.026;2023-04-24T08:57:03;7.72;;;4.03;;
52470;SDS011;38382;53.160;7.026;2023-04-24T08:59:29;7.53;;;3.58;;
52470;SDS011;38382;53.160;7.026;2023-04-24T09:01:56;6.65;;;3.65;;
52470;SDS011;38382;53.160;7.026;2023-04-24T09:04:23;6.18;;;3.92;;
52470;SDS011;38382;53.160;7.026;2023-04-24T09:06:56;9.07;;;4.60;;
52470;SDS011;38382;53.160;7.026;2023-04-24T09:09:23;10.50;;;7.05;;
52470;SDS011;38382;53.160;7.026;2023-04-24T09:11:50;12.95;;;7.40;;
52470;SDS011;38382;53.160;7.026;2023-04-24T09:14:18;13.93;;;8.05;;
52470;SDS011;38382;53.160;7.026;2023-04-24T09:16:45;20.88;;;10.40;;
52470;SDS011;38382;53.160;7.026;2023-04-24T09:19:11;21.25;;;9.60;;
52470;SDS011;38382;53.160;7.026;2023-04-24T09:21:37;19.30;;;10.70;;
52470;SDS011;38382;53.160;7.026;2023-04-24T09:24:05;25.10;;;11.55;;
52470;SDS011;38382;53.160;7.026;2023-04-24T09:26:34;21.25;;;10.93;;
52470;SDS011;38382;53.160;7.026;2023-04-24T09:29:01;21.25;;;10.95;;
52470;SDS011;38382;53.160;7.026;2023-04-24T09:31:28;18.95;;;10.50;;
52470;SDS011;38382;53.160;7.026;2023-04-24T09:33:58;17.00;;;10.05;;
52470;SDS011;38382;53.160;7.026;2023-04-24T09:36:26;19.67;;;10.90;;
52470;SDS011;38382;53.160;7.026;2023-04-24T09:41:48;21.13;;;10.57;;
52470;SDS011;38382;53.160;7.026;2023-04-24T09:44:15;19.90;;;10.77;;
52470;SDS011;38382;53.160;7.026;2023-04-24T09:46:42;25.52;;;11.95;;
52470;SDS011;38382;53.160;7.026;2023-04-24T09:49:12;19.63;;;11.98;;
52470;SDS011;38382;53.160;7.026;2023-04-24T09:51:40;23.13;;;11.65;;
52470;SDS011;38382;53.160;7.026;2023-04-24T09:54:27;26.85;;;12.18;;
52470;SDS011;38382;53.160;7.026;2023-04-24T09:56:52;25.85;;;11.70;;
52470;SDS011;38382;53.160;7.026;2023-04-24T09:59:20;22.92;;;11.55;;
52470;SDS011;38382;53.160;7.026;2023-04-24T10:01:47;20.08;;;11.63;;
52470;SDS011;38382;53.160;7.026;2023-04-24T10:06:47;18.98;;;11.40;;
52470;SDS011;38382;53.160;7.026;2023-04-24T10:09:14;19.95;;;12.13;;
52470;SDS011;38382;53.160;7.026;2023-04-24T10:11:41;18.90;;;11.45;;
52470;SDS011;38382;53.160;7.026;2023-04-24T10:14:15;21.85;;;11.27;;
52470;SDS011;38382;53.160;7.026;2023-04-24T10:16:42;17.60;;;10.25;;
52470;SDS011;38382;53.160;7.026;2023-04-24T10:19:09;20.20;;;9.90;;
52470;SDS011;38382;53.160;7.026;2023-04-24T10:21:36;16.65;;;9.80;;
52470;SDS011;38382;53.160;7.026;2023-04-24T10:24:07;16.73;;;9.80;;
52470;SDS011;38382;53.160;7.026;2023-04-24T10:26:36;16.42;;;9.18;;
52470;SDS011;38382;53.160;7.026;2023-04-24T10:29:03;21.33;;;10.05;;
52470;SDS011;38382;53.160;7.026;2023-04-24T10:31:35;17.55;;;9.82;;
52470;SDS011;38382;53.160;7.026;2023-04-24T10:34:02;15.75;;;8.50;;
52470;SDS011;38382;53.160;7.026;2023-04-24T10:36:30;14.13;;;7.85;;
52470;SDS011;38382;53.160;7.026;2023-04-24T10:38:58;16.67;;;8.07;;
52470;SDS011;38382;53.160;7.026;2023-04-24T10:41:26;18.63;;;7.45;;
52470;SDS011;38382;53.160;7.026;2023-04-24T10:44:08;16.23;;;7.10;;
52470;SDS011;38382;53.160;7.026;2023-04-24T10:46:38;17.52;;;7.88;;
52470;SDS011;38382;53.160;7.026;2023-04-24T10:49:07;18.17;;;7.70;;
52470;SDS011;38382;53.160;7.026;2023-04-24T10:51:52;16.35;;;7.43;;
52470;SDS011;38382;53.160;7.026;2023-04-24T10:54:22;20.98;;;7.18;;
52470;SDS011;38382;53.160;7.026;2023-04-24T10:59:43;16.85;;;6.70;;
52470;SDS011;38382;53.160;7.026;2023-04-24T11:02:09;12.27;;;6.43;;
52470;SDS011;38382;53.160;7.026;2023-04-24T11:04:35;11.23;;;6.60;;
52470;SDS011;38382;53.160;7.026;2023-04-24T11:07:02;12.45;;;6.22;;
52470;SDS011;38382;53.160;7.026;2023-04-24T11:09:32;14.25;;;5.80;;
52470;SDS011;38382;53.160;7.026;2023-04-24T11:12:04;11.82;;;5.70;;
52470;SDS011;38382;53.160;7.026;2023-04-24T11:17:36;10.80;;;4.47;;
52470;SDS011;38382;53.160;7.026;2023-04-24T11:20:09;10.13;;;4.30;;
52470;SDS011;38382;53.160;7.026;2023-04-24T11:22:36;9.32;;;4.20;;
52470;SDS011;38382;53.160;7.026;2023-04-24T11:25:05;8.65;;;4.25;;
52470;SDS011;38382;53.160;7.026;2023-04-24T11:27:39;10.63;;;4.38;;
52470;SDS011;38382;53.160;7.026;2023-04-24T11:30:06;7.57;;;4.43;;
52470;SDS011;38382;53.160;7.026;2023-04-24T11:35:18;9.73;;;4.30;;
52470;SDS011;38382;53.160;7.026;2023-04-24T11:37:50;8.48;;;4.07;;
52470;SDS011;38382;53.160;7.026;2023-04-24T11:40:19;10.23;;;4.28;;
52470;SDS011;38382;53.160;7.026;2023-04-24T11:42:47;8.25;;;3.70;;
52470;SDS011;38382;53.160;7.026;2023-04-24T11:45:16;8.40;;;3.80;;
52470;SDS011;38382;53.160;7.026;2023-04-24T11:47:49;8.38;;;3.50;;
52470;SDS011;38382;53.160;7.026;2023-04-24T11:50:16;10.00;;;4.05;;
52470;SDS011;38382;53.160;7.026;2023-04-24T11:52:45;9.48;;;3.38;;
52470;SDS011;38382;53.160;7.026;2023-04-24T11:57:45;10.07;;;2.90;;
52470;SDS011;38382;53.160;7.026;2023-04-24T12:02:43;6.25;;;2.90;;
52470;SDS011;38382;53.160;7.026;2023-04-24T12:05:18;7.50;;;2.85;;
52470;SDS011;38382;53.160;7.026;2023-04-24T12:07:45;9.90;;;2.60;;
52470;SDS011;38382;53.160;7.026;2023-04-24T12:10:11;6.40;;;2.88;;
52470;SDS011;38382;53.160;7.026;2023-04-24T12:12:37;8.15;;;3.03;;
52470;SDS011;38382;53.160;7.026;2023-04-24T12:15:06;7.38;;;3.30;;
52470;SDS011;38382;53.160;7.026;2023-04-24T12:17:33;7.80;;;2.58;;
52470;SDS011;38382;53.160;7.026;2023-04-24T12:20:05;10.85;;;3.05;;
52470;SDS011;38382;53.160;7.026;2023-04-24T12:22:49;13.43;;;3.33;;
52470;SDS011;38382;53.160;7.026;2023-04-24T12:25:18;7.60;;;2.97;;
52470;SDS011;38382;53.160;7.026;2023-04-24T12:27:45;7.97;;;3.20;;
52470;SDS011;38382;53.160;7.026;2023-04-24T12:30:15;6.28;;;2.83;;
52470;SDS011;38382;53.160;7.026;2023-04-24T12:32:45;8.00;;;3.03;;
52470;SDS011;38382;53.160;7.026;2023-04-24T12:35:13;7.43;;;2.63;;
52470;SDS011;38382;53.160;7.026;2023-04-24T12:37:43;5.88;;;2.60;;
52470;SDS011;38382;53.160;7.026;2023-04-24T12:40:10;7.18;;;2.67;;
52470;SDS011;38382;53.160;7.026;2023-04-24T12:42:44;8.55;;;2.72;;
52470;SDS011;38382;53.160;7.026;2023-04-24T12:45:11;7.18;;;2.50;;
52470;SDS011;38382;53.160;7.026;2023-04-24T12:47:38;9.68;;;2.97;;
52470;SDS011;38382;53.160;7.026;2023-04-24T12:50:05;8.30;;;3.03;;
52470;SDS011;38382;53.160;7.026;2023-04-24T12:52:35;6.93;;;2.13;;
52470;SDS011;38382;53.160;7.026;2023-04-24T12:55:02;5.72;;;2.00;;
52470;SDS011;38382;53.160;7.026;2023-04-24T12:57:29;8.27;;;2.10;;
52470;SDS011;38382;53.160;7.026;2023-04-24T12:59:56;4.47;;;2.00;;
52470;SDS011;38382;53.160;7.026;2023-04-24T13:02:24;5.78;;;2.08;;
52470;SDS011;38382;53.160;7.026;2023-04-24T13:04:52;7.72;;;2.03;;
52470;SDS011;38382;53.160;7.026;2023-04-24T13:07:19;5.95;;;2.47;;
52470;SDS011;38382;53.160;7.026;2023-04-24T13:09:45;7.10;;;2.35;;
52470;SDS011;38382;53.160;7.026;2023-04-24T13:12:13;6.22;;;2.30;;
52470;SDS011;38382;53.160;7.026;2023-04-24T13:14:39;4.80;;;2.20;;
52470;SDS011;38382;53.160;7.026;2023-04-24T13:17:05;6.35;;;2.53;;
52470;SDS011;38382;53.160;7.026;2023-04-24T13:19:36;6.22;;;2.33;;
52470;SDS011;38382;53.160;7.026;2023-04-24T13:22:02;6.05;;;2.50;;
52470;SDS011;38382;53.160;7.026;2023-04-24T13:24:29;6.65;;;2.30;;
52470;SDS011;38382;53.160;7.026;2023-04-24T13:26:56;7.50;;;2.30;;
52470;SDS011;38382;53.160;7.026;2023-04-24T13:29:22;6.63;;;2.20;;
52470;SDS011;38382;53.160;7.026;2023-04-24T13:31:52;6.35;;;2.05;;
52470;SDS011;38382;53.160;7.026;2023-04-24T13:34:25;4.05;;;1.70;;
52470;SDS011;38382;53.160;7.026;2023-04-24T13:36:52;10.00;;;1.83;;
52470;SDS011;38382;53.160;7.026;2023-04-24T13:39:19;7.45;;;1.88;;
52470;SDS011;38382;53.160;7.026;2023-04-24T13:41:46;4.00;;;1.52;;
52470;SDS011;38382;53.160;7.026;2023-04-24T13:44:13;4.90;;;1.70;;
52470;SDS011;38382;53.160;7.026;2023-04-24T13:46:40;8.70;;;1.85;;
52470;SDS011;38382;53.160;7.026;2023-04-24T13:49:08;5.75;;;2.08;;
52470;SDS011;38382;53.160;7.026;2023-04-24T13:51:34;6.45;;;1.80;;
52470;SDS011;38382;53.160;7.026;2023-04-24T13:54:00;6.05;;;1.80;;
52470;SDS011;38382;53.160;7.026;2023-04-24T13:56:26;4.15;;;1.75;;
52470;SDS011;38382;53.160;7.026;2023-04-24T13:58:51;8.77;;;1.77;;
52470;SDS011;38382;53.160;7.026;2023-04-24T14:01:19;5.82;;;2.38;;
52470;SDS011;38382;53.160;7.026;2023-04-24T14:03:45;5.32;;;1.75;;
52470;SDS011;38382;53.160;7.026;2023-04-24T14:06:11;5.90;;;1.70;;
52470;SDS011;38382;53.160;7.026;2023-04-24T14:08:37;5.82;;;1.95;;
52470;SDS011;38382;53.160;7.026;2023-04-24T14:11:03;5.05;;;2.33;;
52470;SDS011;38382;53.160;7.026;2023-04-24T14:13:29;5.68;;;2.15;;
52470;SDS011;38382;53.160;7.026;2023-04-24T14:15:55;7.45;;;1.95;;
52470;SDS011;38382;53.160;7.026;2023-04-24T14:18:21;9.63;;;2.15;;
52470;SDS011;38382;53.160;7.026;2023-04-24T14:20:46;5.85;;;1.95;;
52470;SDS011;38382;53.160;7.026;2023-04-24T14:23:12;5.32;;;1.80;;
52470;SDS011;38382;53.160;7.026;2023-04-24T14:25:38;6.57;;;1.77;;
52470;SDS011;38382;53.160;7.026;2023-04-24T14:28:03;5.50;;;1.88;;
52470;SDS011;38382;53.160;7.026;2023-04-24T14:30:31;6.85;;;1.92;;
52470;SDS011;38382;53.160;7.026;2023-04-24T14:32:57;4.78;;;1.80;;
52470;SDS011;38382;53.160;7.026;2023-04-24T14:35:22;5.40;;;1.83;;
52470;SDS011;38382;53.160;7.026;2023-04-24T14:37:48;7.00;;;2.60;;
52470;SDS011;38382;53.160;7.026;2023-04-24T14:40:14;4.72;;;1.92;;
52470;SDS011;38382;53.160;7.026;2023-04-24T14:42:40;6.68;;;1.80;;
52470;SDS011;38382;53.160;7.026;2023-04-24T14:45:06;4.55;;;1.73;;
52470;SDS011;38382;53.160;7.026;2023-04-24T14:47:32;5.93;;;1.80;;
52470;SDS011;38382;53.160;7.026;2023-04-24T14:49:58;3.50;;;1.85;;
52470;SDS011;38382;53.160;7.026;2023-04-24T14:52:24;3.65;;;1.58;;
52470;SDS011;38382;53.160;7.026;2023-04-24T14:54:50;5.40;;;1.88;;
52470;SDS011;38382;53.160;7.026;2023-04-24T14:57:16;5.28;;;1.75;;
52470;SDS011;38382;53.160;7.026;2023-04-24T14:59:41;4.60;;;2.08;;
52470;SDS011;38382;53.160;7.026;2023-04-24T15:02:07;8.75;;;1.98;;